CheckWX is a tool to help pilots better visualize weather data.  It is not intended as a substitute for an official pre-flight weather briefing.

05:56:35 UTC

KMER METAR
Castle Airport
Atwater, California, USA
Current

2 hours ago

KMER 070345Z 13009KT 10SM SKC 13/11 A3003
Observed
Dec-7 @ 03:45 UTC
Wind
  • 130° at 9 KTS
Visibility
10 SM
Flight Rules
VFR
Cloud Levels
  • Clear skies
Temperature
13°C / 55°F
Dewpoint
11°C / 52°F
Humidity
88%
Altimeter
30.03" Hg
Pressure
1016.92 hPa
Previous

4 hours ago

KMER 070145Z 13011KT 10SM SKC 15/12 A3001
Observed
Dec-7 @ 01:45 UTC
Wind
  • 130° at 11 KTS
Visibility
10 SM
Flight Rules
VFR
Cloud Levels
  • Clear skies
Temperature
15°C / 59°F
Dewpoint
12°C / 54°F
Humidity
82%
Altimeter
30.01" Hg
Pressure
1016.22 hPa
Previous

7 hours ago

KMER 062245Z 17014G22KT 10SM SKC 21/11 A2999
Observed
Dec-6 @ 22:45 UTC
Wind
  • 170° at 14 KTS
  • Gusting to 22 KTS
Visibility
10 SM
Flight Rules
VFR
Cloud Levels
  • Clear skies
Temperature
21°C / 70°F
Dewpoint
11°C / 52°F
Humidity
53%
Altimeter
29.99" Hg
Pressure
1015.62 hPa